sensor_id;sensor_type;location;lat;lon;timestamp;P1;durP1;ratioP1;P2;durP2;ratioP2
51336;SDS011;37421;51.176;17.196;2022-12-07T00:00:47;0.20;;;0.10;;
51336;SDS011;37421;51.176;17.196;2022-12-07T00:03:20;0.20;;;0.10;;
51336;SDS011;37421;51.176;17.196;2022-12-07T00:06:00;0.20;;;0.10;;
51336;SDS011;37421;51.176;17.196;2022-12-07T00:08:37;0.38;;;0.10;;
51336;SDS011;37421;51.176;17.196;2022-12-07T00:11:13;0.00;;;0.00;;
51336;SDS011;37421;51.176;17.196;2022-12-07T00:14:09;0.00;;;0.00;;
51336;SDS011;37421;51.176;17.196;2022-12-07T00:16:40;0.00;;;0.00;;
51336;SDS011;37421;51.176;17.196;2022-12-07T00:19:24;0.28;;;0.10;;
51336;SDS011;37421;51.176;17.196;2022-12-07T00:22:47;0.10;;;0.10;;
51336;SDS011;37421;51.176;17.196;2022-12-07T00:26:15;0.08;;;0.00;;
51336;SDS011;37421;51.176;17.196;2022-12-07T00:29:28;0.10;;;0.10;;
51336;SDS011;37421;51.176;17.196;2022-12-07T00:32:24;0.20;;;0.08;;
51336;SDS011;37421;51.176;17.196;2022-12-07T00:35:00;0.10;;;0.10;;
51336;SDS011;37421;51.176;17.196;2022-12-07T00:37:41;0.28;;;0.10;;
51336;SDS011;37421;51.176;17.196;2022-12-07T00:40:26;0.08;;;0.05;;
51336;SDS011;37421;51.176;17.196;2022-12-07T00:43:25;0.00;;;0.00;;
51336;SDS011;37421;51.176;17.196;2022-12-07T00:46:21;0.00;;;0.00;;
51336;SDS011;37421;51.176;17.196;2022-12-07T00:49:38;0.00;;;0.00;;
51336;SDS011;37421;51.176;17.196;2022-12-07T00:52:42;0.10;;;0.00;;
51336;SDS011;37421;51.176;17.196;2022-12-07T00:55:49;0.03;;;0.00;;
51336;SDS011;37421;51.176;17.196;2022-12-07T01:02:34;0.08;;;0.03;;
51336;SDS011;37421;51.176;17.196;2022-12-07T01:05:55;0.10;;;0.00;;
51336;SDS011;37421;51.176;17.196;2022-12-07T01:09:12;0.00;;;0.00;;
51336;SDS011;37421;51.176;17.196;2022-12-07T01:12:32;0.00;;;0.00;;
51336;SDS011;37421;51.176;17.196;2022-12-07T01:19:26;0.00;;;0.00;;
51336;SDS011;37421;51.176;17.196;2022-12-07T01:28:34;0.10;;;0.00;;
51336;SDS011;37421;51.176;17.196;2022-12-07T01:37:46;0.00;;;0.00;;
51336;SDS011;37421;51.176;17.196;2022-12-07T01:40:41;0.10;;;0.03;;
51336;SDS011;37421;51.176;17.196;2022-12-07T01:44:06;0.00;;;0.00;;
51336;SDS011;37421;51.176;17.196;2022-12-07T01:47:10;0.10;;;0.00;;
51336;SDS011;37421;51.176;17.196;2022-12-07T01:49:46;0.03;;;0.00;;
51336;SDS011;37421;51.176;17.196;2022-12-07T01:52:37;0.00;;;0.00;;
51336;SDS011;37421;51.176;17.196;2022-12-07T01:58:26;0.20;;;0.10;;
51336;SDS011;37421;51.176;17.196;2022-12-07T02:01:01;0.00;;;0.00;;
51336;SDS011;37421;51.176;17.196;2022-12-07T02:04:02;0.00;;;0.00;;
51336;SDS011;37421;51.176;17.196;2022-12-07T02:06:42;0.00;;;0.00;;
51336;SDS011;37421;51.176;17.196;2022-12-07T02:09:24;0.28;;;0.10;;
51336;SDS011;37421;51.176;17.196;2022-12-07T02:12:14;0.00;;;0.00;;
51336;SDS011;37421;51.176;17.196;2022-12-07T02:14:53;0.10;;;0.10;;
51336;SDS011;37421;51.176;17.196;2022-12-07T02:17:33;0.00;;;0.00;;
51336;SDS011;37421;51.176;17.196;2022-12-07T02:21:10;0.03;;;0.00;;
51336;SDS011;37421;51.176;17.196;2022-12-07T02:27:24;0.17;;;0.00;;
51336;SDS011;37421;51.176;17.196;2022-12-07T02:30:38;0.00;;;0.00;;
51336;SDS011;37421;51.176;17.196;2022-12-07T02:34:21;0.20;;;0.00;;
51336;SDS011;37421;51.176;17.196;2022-12-07T02:37:00;0.20;;;0.10;;
51336;SDS011;37421;51.176;17.196;2022-12-07T02:39:46;0.20;;;0.00;;
51336;SDS011;37421;51.176;17.196;2022-12-07T02:42:40;0.00;;;0.00;;
51336;SDS011;37421;51.176;17.196;2022-12-07T02:45:25;0.00;;;0.00;;
51336;SDS011;37421;51.176;17.196;2022-12-07T02:47:59;0.00;;;0.00;;
51336;SDS011;37421;51.176;17.196;2022-12-07T02:50:38;0.00;;;0.00;;
51336;SDS011;37421;51.176;17.196;2022-12-07T02:53:39;0.00;;;0.00;;
51336;SDS011;37421;51.176;17.196;2022-12-07T02:56:18;0.00;;;0.00;;
51336;SDS011;37421;51.176;17.196;2022-12-07T03:08:51;0.00;;;0.00;;
51336;SDS011;37421;51.176;17.196;2022-12-07T03:12:19;0.00;;;0.00;;
51336;SDS011;37421;51.176;17.196;2022-12-07T03:15:12;0.00;;;0.00;;
51336;SDS011;37421;51.176;17.196;2022-12-07T03:18:36;0.00;;;0.00;;
51336;SDS011;37421;51.176;17.196;2022-12-07T03:25:23;0.00;;;0.00;;
51336;SDS011;37421;51.176;17.196;2022-12-07T03:27:53;0.00;;;0.00;;
51336;SDS011;37421;51.176;17.196;2022-12-07T03:30:24;0.00;;;0.00;;
51336;SDS011;37421;51.176;17.196;2022-12-07T03:33:08;0.00;;;0.00;;
51336;SDS011;37421;51.176;17.196;2022-12-07T03:36:02;0.00;;;0.00;;
51336;SDS011;37421;51.176;17.196;2022-12-07T03:38:44;0.10;;;0.00;;
51336;SDS011;37421;51.176;17.196;2022-12-07T03:41:24;0.00;;;0.00;;
51336;SDS011;37421;51.176;17.196;2022-12-07T03:44:06;0.00;;;0.00;;
51336;SDS011;37421;51.176;17.196;2022-12-07T03:49:11;0.00;;;0.00;;
51336;SDS011;37421;51.176;17.196;2022-12-07T03:55:05;0.00;;;0.00;;
51336;SDS011;37421;51.176;17.196;2022-12-07T03:57:43;0.00;;;0.00;;
51336;SDS011;37421;51.176;17.196;2022-12-07T04:02:43;0.00;;;0.00;;
51336;SDS011;37421;51.176;17.196;2022-12-07T04:05:12;0.00;;;0.00;;
51336;SDS011;37421;51.176;17.196;2022-12-07T04:07:41;0.00;;;0.00;;
51336;SDS011;37421;51.176;17.196;2022-12-07T04:10:13;0.00;;;0.00;;
51336;SDS011;37421;51.176;17.196;2022-12-07T04:12:40;0.00;;;0.00;;
51336;SDS011;37421;51.176;17.196;2022-12-07T04:15:14;0.00;;;0.00;;
51336;SDS011;37421;51.176;17.196;2022-12-07T04:17:46;0.00;;;0.00;;
51336;SDS011;37421;51.176;17.196;2022-12-07T04:20:16;0.25;;;0.10;;
51336;SDS011;37421;51.176;17.196;2022-12-07T04:22:51;0.00;;;0.00;;
51336;SDS011;37421;51.176;17.196;2022-12-07T04:25:28;0.00;;;0.00;;
51336;SDS011;37421;51.176;17.196;2022-12-07T04:27:57;0.10;;;0.00;;
51336;SDS011;37421;51.176;17.196;2022-12-07T04:30:33;0.00;;;0.00;;
51336;SDS011;37421;51.176;17.196;2022-12-07T04:33:05;0.00;;;0.00;;
51336;SDS011;37421;51.176;17.196;2022-12-07T04:35:33;0.30;;;0.00;;
51336;SDS011;37421;51.176;17.196;2022-12-07T04:38:02;0.03;;;0.00;;
51336;SDS011;37421;51.176;17.196;2022-12-07T04:40:37;0.00;;;0.00;;
51336;SDS011;37421;51.176;17.196;2022-12-07T04:43:21;0.00;;;0.00;;
51336;SDS011;37421;51.176;17.196;2022-12-07T04:45:53;0.00;;;0.00;;
51336;SDS011;37421;51.176;17.196;2022-12-07T04:48:33;0.00;;;0.00;;
51336;SDS011;37421;51.176;17.196;2022-12-07T04:51:08;0.00;;;0.00;;
51336;SDS011;37421;51.176;17.196;2022-12-07T04:53:36;0.00;;;0.00;;
51336;SDS011;37421;51.176;17.196;2022-12-07T04:56:08;0.00;;;0.00;;
51336;SDS011;37421;51.176;17.196;2022-12-07T04:58:41;0.00;;;0.00;;
51336;SDS011;37421;51.176;17.196;2022-12-07T05:01:16;0.00;;;0.00;;
51336;SDS011;37421;51.176;17.196;2022-12-07T05:03:57;0.00;;;0.00;;
51336;SDS011;37421;51.176;17.196;2022-12-07T05:06:35;0.00;;;0.00;;
51336;SDS011;37421;51.176;17.196;2022-12-07T05:09:14;0.08;;;0.00;;
51336;SDS011;37421;51.176;17.196;2022-12-07T05:11:46;0.00;;;0.00;;
51336;SDS011;37421;51.176;17.196;2022-12-07T05:14:15;0.00;;;0.00;;
51336;SDS011;37421;51.176;17.196;2022-12-07T05:16:44;0.00;;;0.00;;
51336;SDS011;37421;51.176;17.196;2022-12-07T05:19:17;0.00;;;0.00;;
51336;SDS011;37421;51.176;17.196;2022-12-07T05:21:47;0.00;;;0.00;;
51336;SDS011;37421;51.176;17.196;2022-12-07T05:33:16;0.10;;;0.00;;
51336;SDS011;37421;51.176;17.196;2022-12-07T05:35:46;0.00;;;0.00;;
51336;SDS011;37421;51.176;17.196;2022-12-07T05:38:19;0.00;;;0.00;;
51336;SDS011;37421;51.176;17.196;2022-12-07T05:40:52;0.03;;;0.00;;
51336;SDS011;37421;51.176;17.196;2022-12-07T05:43:30;0.00;;;0.00;;
51336;SDS011;37421;51.176;17.196;2022-12-07T05:46:02;0.30;;;0.10;;
51336;SDS011;37421;51.176;17.196;2022-12-07T05:48:42;0.00;;;0.00;;
51336;SDS011;37421;51.176;17.196;2022-12-07T05:52:17;0.00;;;0.00;;
51336;SDS011;37421;51.176;17.196;2022-12-07T05:54:53;0.00;;;0.00;;
51336;SDS011;37421;51.176;17.196;2022-12-07T05:57:22;0.00;;;0.00;;
51336;SDS011;37421;51.176;17.196;2022-12-07T06:02:29;0.00;;;0.00;;
51336;SDS011;37421;51.176;17.196;2022-12-07T06:05:23;0.00;;;0.00;;
51336;SDS011;37421;51.176;17.196;2022-12-07T06:08:18;0.00;;;0.00;;
51336;SDS011;37421;51.176;17.196;2022-12-07T06:11:09;0.00;;;0.00;;
51336;SDS011;37421;51.176;17.196;2022-12-07T06:14:05;0.00;;;0.00;;
51336;SDS011;37421;51.176;17.196;2022-12-07T06:16:45;0.00;;;0.00;;
51336;SDS011;37421;51.176;17.196;2022-12-07T06:19:29;0.00;;;0.00;;
51336;SDS011;37421;51.176;17.196;2022-12-07T06:22:20;0.00;;;0.00;;
51336;SDS011;37421;51.176;17.196;2022-12-07T06:24:55;0.00;;;0.00;;
51336;SDS011;37421;51.176;17.196;2022-12-07T06:27:32;0.00;;;0.00;;
51336;SDS011;37421;51.176;17.196;2022-12-07T06:30:15;0.10;;;0.10;;
51336;SDS011;37421;51.176;17.196;2022-12-07T06:33:01;0.03;;;0.00;;
51336;SDS011;37421;51.176;17.196;2022-12-07T06:35:43;0.17;;;0.00;;
51336;SDS011;37421;51.176;17.196;2022-12-07T06:38:29;0.10;;;0.00;;
51336;SDS011;37421;51.176;17.196;2022-12-07T06:41:08;0.00;;;0.00;;
51336;SDS011;37421;51.176;17.196;2022-12-07T06:43:47;0.00;;;0.00;;
51336;SDS011;37421;51.176;17.196;2022-12-07T06:46:23;0.00;;;0.00;;
51336;SDS011;37421;51.176;17.196;2022-12-07T06:48:56;0.00;;;0.00;;
51336;SDS011;37421;51.176;17.196;2022-12-07T06:51:27;0.00;;;0.00;;
51336;SDS011;37421;51.176;17.196;2022-12-07T06:54:03;0.00;;;0.00;;
51336;SDS011;37421;51.176;17.196;2022-12-07T06:56:45;0.00;;;0.00;;
51336;SDS011;37421;51.176;17.196;2022-12-07T07:02:36;0.00;;;0.00;;
51336;SDS011;37421;51.176;17.196;2022-12-07T07:05:13;0.05;;;0.00;;
51336;SDS011;37421;51.176;17.196;2022-12-07T07:07:44;0.00;;;0.00;;
51336;SDS011;37421;51.176;17.196;2022-12-07T07:10:13;0.08;;;0.08;;
51336;SDS011;37421;51.176;17.196;2022-12-07T07:12:42;0.00;;;0.00;;
51336;SDS011;37421;51.176;17.196;2022-12-07T07:15:21;0.00;;;0.00;;
51336;SDS011;37421;51.176;17.196;2022-12-07T07:17:47;0.10;;;0.00;;
51336;SDS011;37421;51.176;17.196;2022-12-07T07:20:20;0.00;;;0.00;;
51336;SDS011;37421;51.176;17.196;2022-12-07T07:32:36;0.00;;;0.00;;
51336;SDS011;37421;51.176;17.196;2022-12-07T07:35:08;0.05;;;0.00;;
51336;SDS011;37421;51.176;17.196;2022-12-07T07:37:42;0.00;;;0.00;;
51336;SDS011;37421;51.176;17.196;2022-12-07T07:42:46;0.10;;;0.00;;
51336;SDS011;37421;51.176;17.196;2022-12-07T07:45:28;0.00;;;0.00;;
51336;SDS011;37421;51.176;17.196;2022-12-07T07:48:08;0.00;;;0.00;;
51336;SDS011;37421;51.176;17.196;2022-12-07T07:50:37;0.10;;;0.00;;
51336;SDS011;37421;51.176;17.196;2022-12-07T07:53:08;0.00;;;0.00;;
51336;SDS011;37421;51.176;17.196;2022-12-07T07:55:40;0.00;;;0.00;;
51336;SDS011;37421;51.176;17.196;2022-12-07T08:18:29;0.00;;;0.00;;
51336;SDS011;37421;51.176;17.196;2022-12-07T08:52:21;0.00;;;0.00;;
51336;SDS011;37421;51.176;17.196;2022-12-07T08:54:55;0.20;;;0.00;;
51336;SDS011;37421;51.176;17.196;2022-12-07T08:57:43;0.00;;;0.00;;
51336;SDS011;37421;51.176;17.196;2022-12-07T09:00:39;0.08;;;0.00;;
51336;SDS011;37421;51.176;17.196;2022-12-07T10:10:15;0.00;;;0.00;;
51336;SDS011;37421;51.176;17.196;2022-12-07T10:13:01;0.15;;;0.03;;
51336;SDS011;37421;51.176;17.196;2022-12-07T10:29:31;0.20;;;0.10;;
51336;SDS011;37421;51.176;17.196;2022-12-07T10:32:32;0.63;;;0.10;;
51336;SDS011;37421;51.176;17.196;2022-12-07T10:38:29;0.10;;;0.00;;
51336;SDS011;37421;51.176;17.196;2022-12-07T10:44:41;0.17;;;0.10;;
51336;SDS011;37421;51.176;17.196;2022-12-07T11:00:08;0.28;;;0.00;;
51336;SDS011;37421;51.176;17.196;2022-12-07T11:09:56;0.10;;;0.00;;
51336;SDS011;37421;51.176;17.196;2022-12-07T11:24:48;0.45;;;0.00;;
51336;SDS011;37421;51.176;17.196;2022-12-07T11:30:33;0.00;;;0.00;;
51336;SDS011;37421;51.176;17.196;2022-12-07T11:36:33;0.20;;;0.10;;
51336;SDS011;37421;51.176;17.196;2022-12-07T11:39:33;0.00;;;0.00;;
51336;SDS011;37421;51.176;17.196;2022-12-07T11:42:26;0.00;;;0.00;;
51336;SDS011;37421;51.176;17.196;2022-12-07T11:45:04;0.10;;;0.10;;
51336;SDS011;37421;51.176;17.196;2022-12-07T11:47:54;0.20;;;0.17;;
51336;SDS011;37421;51.176;17.196;2022-12-07T11:50:43;0.00;;;0.00;;
51336;SDS011;37421;51.176;17.196;2022-12-07T12:01:50;0.13;;;0.05;;
51336;SDS011;37421;51.176;17.196;2022-12-07T12:17:37;0.30;;;0.10;;
51336;SDS011;37421;51.176;17.196;2022-12-07T12:27:05;0.00;;;0.00;;
51336;SDS011;37421;51.176;17.196;2022-12-07T12:30:02;0.35;;;0.08;;
51336;SDS011;37421;51.176;17.196;2022-12-07T12:36:27;0.10;;;0.00;;
51336;SDS011;37421;51.176;17.196;2022-12-07T12:39:26;0.00;;;0.00;;
51336;SDS011;37421;51.176;17.196;2022-12-07T12:42:42;0.03;;;0.00;;
51336;SDS011;37421;51.176;17.196;2022-12-07T12:45:31;0.20;;;0.10;;
51336;SDS011;37421;51.176;17.196;2022-12-07T12:48:30;0.00;;;0.00;;
51336;SDS011;37421;51.176;17.196;2022-12-07T12:54:58;0.00;;;0.00;;
51336;SDS011;37421;51.176;17.196;2022-12-07T12:57:48;0.00;;;0.00;;
51336;SDS011;37421;51.176;17.196;2022-12-07T13:04:12;0.00;;;0.00;;
51336;SDS011;37421;51.176;17.196;2022-12-07T13:07:10;0.03;;;0.03;;
51336;SDS011;37421;51.176;17.196;2022-12-07T13:10:20;0.00;;;0.00;;
51336;SDS011;37421;51.176;17.196;2022-12-07T13:23:52;0.00;;;0.00;;
51336;SDS011;37421;51.176;17.196;2022-12-07T13:26:36;0.00;;;0.00;;
51336;SDS011;37421;51.176;17.196;2022-12-07T13:29:13;0.00;;;0.00;;
51336;SDS011;37421;51.176;17.196;2022-12-07T13:44:39;0.10;;;0.00;;
51336;SDS011;37421;51.176;17.196;2022-12-07T13:49:51;0.10;;;0.00;;
51336;SDS011;37421;51.176;17.196;2022-12-07T13:55:16;0.00;;;0.00;;
51336;SDS011;37421;51.176;17.196;2022-12-07T13:57:43;0.00;;;0.00;;
51336;SDS011;37421;51.176;17.196;2022-12-07T14:00:30;0.00;;;0.00;;
51336;SDS011;37421;51.176;17.196;2022-12-07T14:05:42;0.00;;;0.00;;
51336;SDS011;37421;51.176;17.196;2022-12-07T14:10:54;0.30;;;0.13;;
51336;SDS011;37421;51.176;17.196;2022-12-07T14:13:35;0.00;;;0.00;;
51336;SDS011;37421;51.176;17.196;2022-12-07T14:16:18;0.20;;;0.10;;
51336;SDS011;37421;51.176;17.196;2022-12-07T14:30:56;0.08;;;0.00;;
51336;SDS011;37421;51.176;17.196;2022-12-07T14:33:46;0.00;;;0.00;;
51336;SDS011;37421;51.176;17.196;2022-12-07T14:36:18;0.10;;;0.10;;
51336;SDS011;37421;51.176;17.196;2022-12-07T14:38:54;0.00;;;0.00;;
51336;SDS011;37421;51.176;17.196;2022-12-07T14:41:26;0.00;;;0.00;;
51336;SDS011;37421;51.176;17.196;2022-12-07T14:44:14;0.03;;;0.00;;
51336;SDS011;37421;51.176;17.196;2022-12-07T14:46:47;0.77;;;0.40;;
51336;SDS011;37421;51.176;17.196;2022-12-07T14:49:20;0.43;;;0.20;;
51336;SDS011;37421;51.176;17.196;2022-12-07T14:51:46;3.28;;;0.60;;
51336;SDS011;37421;51.176;17.196;2022-12-07T14:54:36;0.03;;;0.03;;
51336;SDS011;37421;51.176;17.196;2022-12-07T14:57:04;0.10;;;0.00;;
51336;SDS011;37421;51.176;17.196;2022-12-07T14:59:37;0.00;;;0.00;;
51336;SDS011;37421;51.176;17.196;2022-12-07T15:02:13;0.00;;;0.00;;
51336;SDS011;37421;51.176;17.196;2022-12-07T15:04:40;0.00;;;0.00;;
51336;SDS011;37421;51.176;17.196;2022-12-07T15:07:18;0.15;;;0.00;;
51336;SDS011;37421;51.176;17.196;2022-12-07T15:09:45;0.03;;;0.00;;
51336;SDS011;37421;51.176;17.196;2022-12-07T15:12:13;0.20;;;0.10;;
51336;SDS011;37421;51.176;17.196;2022-12-07T15:14:42;0.00;;;0.00;;
51336;SDS011;37421;51.176;17.196;2022-12-07T15:17:11;0.32;;;0.10;;
51336;SDS011;37421;51.176;17.196;2022-12-07T15:19:39;0.10;;;0.00;;
51336;SDS011;37421;51.176;17.196;2022-12-07T15:22:05;0.00;;;0.00;;
51336;SDS011;37421;51.176;17.196;2022-12-07T15:24:38;0.28;;;0.10;;
51336;SDS011;37421;51.176;17.196;2022-12-07T15:27:07;0.00;;;0.00;;
51336;SDS011;37421;51.176;17.196;2022-12-07T15:29:36;0.00;;;0.00;;
51336;SDS011;37421;51.176;17.196;2022-12-07T15:32:02;0.00;;;0.00;;
51336;SDS011;37421;51.176;17.196;2022-12-07T15:34:28;0.13;;;0.00;;
51336;SDS011;37421;51.176;17.196;2022-12-07T15:36:59;0.25;;;0.10;;
51336;SDS011;37421;51.176;17.196;2022-12-07T15:39:36;0.03;;;0.00;;
51336;SDS011;37421;51.176;17.196;2022-12-07T15:42:05;0.10;;;0.00;;
51336;SDS011;37421;51.176;17.196;2022-12-07T15:44:34;0.10;;;0.00;;
51336;SDS011;37421;51.176;17.196;2022-12-07T15:47:27;0.52;;;0.10;;
51336;SDS011;37421;51.176;17.196;2022-12-07T15:49:57;0.00;;;0.00;;
51336;SDS011;37421;51.176;17.196;2022-12-07T15:52:30;0.27;;;0.00;;
51336;SDS011;37421;51.176;17.196;2022-12-07T15:55:03;0.20;;;0.00;;
51336;SDS011;37421;51.176;17.196;2022-12-07T15:57:32;0.45;;;0.10;;
51336;SDS011;37421;51.176;17.196;2022-12-07T16:00:02;0.00;;;0.00;;
51336;SDS011;37421;51.176;17.196;2022-12-07T16:02:41;0.20;;;0.03;;
51336;SDS011;37421;51.176;17.196;2022-12-07T16:05:19;0.00;;;0.00;;
51336;SDS011;37421;51.176;17.196;2022-12-07T16:07:52;0.17;;;0.03;;
51336;SDS011;37421;51.176;17.196;2022-12-07T16:10:28;0.10;;;0.10;;
51336;SDS011;37421;51.176;17.196;2022-12-07T16:12:57;0.43;;;0.00;;
51336;SDS011;37421;51.176;17.196;2022-12-07T16:15:30;0.05;;;0.05;;
51336;SDS011;37421;51.176;17.196;2022-12-07T16:18:12;0.00;;;0.00;;
51336;SDS011;37421;51.176;17.196;2022-12-07T16:20:41;0.00;;;0.00;;
51336;SDS011;37421;51.176;17.196;2022-12-07T16:23:19;0.05;;;0.00;;
51336;SDS011;37421;51.176;17.196;2022-12-07T16:25:47;0.25;;;0.10;;
51336;SDS011;37421;51.176;17.196;2022-12-07T16:28:17;0.00;;;0.00;;
51336;SDS011;37421;51.176;17.196;2022-12-07T16:30:43;0.28;;;0.08;;
51336;SDS011;37421;51.176;17.196;2022-12-07T16:33:12;1.08;;;0.10;;
51336;SDS011;37421;51.176;17.196;2022-12-07T16:35:44;0.10;;;0.00;;
51336;SDS011;37421;51.176;17.196;2022-12-07T16:38:10;0.08;;;0.00;;
51336;SDS011;37421;51.176;17.196;2022-12-07T16:40:36;0.20;;;0.10;;
51336;SDS011;37421;51.176;17.196;2022-12-07T16:43:05;0.00;;;0.00;;
51336;SDS011;37421;51.176;17.196;2022-12-07T16:45:36;0.00;;;0.00;;
51336;SDS011;37421;51.176;17.196;2022-12-07T16:48:09;0.35;;;0.10;;
51336;SDS011;37421;51.176;17.196;2022-12-07T16:50:44;0.38;;;0.05;;
51336;SDS011;37421;51.176;17.196;2022-12-07T16:53:19;0.00;;;0.00;;
51336;SDS011;37421;51.176;17.196;2022-12-07T16:55:56;0.00;;;0.00;;
51336;SDS011;37421;51.176;17.196;2022-12-07T16:58:28;0.10;;;0.00;;
51336;SDS011;37421;51.176;17.196;2022-12-07T17:01:18;0.50;;;0.10;;
51336;SDS011;37421;51.176;17.196;2022-12-07T17:03:56;0.10;;;0.00;;
51336;SDS011;37421;51.176;17.196;2022-12-07T17:06:34;0.40;;;0.10;;
51336;SDS011;37421;51.176;17.196;2022-12-07T17:09:02;0.10;;;0.08;;
51336;SDS011;37421;51.176;17.196;2022-12-07T17:11:37;0.13;;;0.10;;
51336;SDS011;37421;51.176;17.196;2022-12-07T17:14:11;1.42;;;0.10;;
51336;SDS011;37421;51.176;17.196;2022-12-07T17:17:01;0.10;;;0.00;;
51336;SDS011;37421;51.176;17.196;2022-12-07T17:19:29;0.03;;;0.00;;
51336;SDS011;37421;51.176;17.196;2022-12-07T17:22:01;0.20;;;0.00;;
51336;SDS011;37421;51.176;17.196;2022-12-07T17:24:30;0.28;;;0.10;;
51336;SDS011;37421;51.176;17.196;2022-12-07T17:26:56;0.40;;;0.10;;
51336;SDS011;37421;51.176;17.196;2022-12-07T17:29:24;0.00;;;0.00;;
51336;SDS011;37421;51.176;17.196;2022-12-07T17:31:56;1.27;;;0.20;;
51336;SDS011;37421;51.176;17.196;2022-12-07T17:34:25;0.10;;;0.08;;
51336;SDS011;37421;51.176;17.196;2022-12-07T17:37:02;0.82;;;0.15;;
51336;SDS011;37421;51.176;17.196;2022-12-07T17:40:04;0.47;;;0.20;;
51336;SDS011;37421;51.176;17.196;2022-12-07T17:42:35;0.30;;;0.10;;
51336;SDS011;37421;51.176;17.196;2022-12-07T17:45:14;0.30;;;0.20;;
51336;SDS011;37421;51.176;17.196;2022-12-07T17:47:46;0.15;;;0.15;;
51336;SDS011;37421;51.176;17.196;2022-12-07T17:50:58;0.28;;;0.13;;
51336;SDS011;37421;51.176;17.196;2022-12-07T17:53:45;0.30;;;0.10;;
51336;SDS011;37421;51.176;17.196;2022-12-07T17:56:16;0.43;;;0.15;;
51336;SDS011;37421;51.176;17.196;2022-12-07T17:58:45;0.43;;;0.30;;
51336;SDS011;37421;51.176;17.196;2022-12-07T18:01:14;0.40;;;0.20;;
51336;SDS011;37421;51.176;17.196;2022-12-07T18:03:44;0.63;;;0.30;;
51336;SDS011;37421;51.176;17.196;2022-12-07T18:06:10;1.17;;;0.30;;
51336;SDS011;37421;51.176;17.196;2022-12-07T18:08:42;0.63;;;0.30;;
51336;SDS011;37421;51.176;17.196;2022-12-07T18:11:08;0.30;;;0.20;;
51336;SDS011;37421;51.176;17.196;2022-12-07T18:13:35;0.80;;;0.20;;
51336;SDS011;37421;51.176;17.196;2022-12-07T18:16:08;0.47;;;0.20;;
51336;SDS011;37421;51.176;17.196;2022-12-07T18:18:42;0.40;;;0.20;;
51336;SDS011;37421;51.176;17.196;2022-12-07T18:21:11;1.00;;;0.25;;
51336;SDS011;37421;51.176;17.196;2022-12-07T18:23:40;0.38;;;0.20;;
51336;SDS011;37421;51.176;17.196;2022-12-07T18:26:11;0.40;;;0.28;;
51336;SDS011;37421;51.176;17.196;2022-12-07T18:28:42;0.55;;;0.20;;
51336;SDS011;37421;51.176;17.196;2022-12-07T18:31:21;0.50;;;0.28;;
51336;SDS011;37421;51.176;17.196;2022-12-07T18:33:54;0.38;;;0.22;;
51336;SDS011;37421;51.176;17.196;2022-12-07T18:36:26;0.75;;;0.25;;
51336;SDS011;37421;51.176;17.196;2022-12-07T18:38:52;0.45;;;0.28;;
51336;SDS011;37421;51.176;17.196;2022-12-07T18:41:19;0.88;;;0.15;;
51336;SDS011;37421;51.176;17.196;2022-12-07T18:43:45;0.03;;;0.03;;
51336;SDS011;37421;51.176;17.196;2022-12-07T18:46:20;0.60;;;0.20;;
51336;SDS011;37421;51.176;17.196;2022-12-07T18:48:48;0.05;;;0.00;;
51336;SDS011;37421;51.176;17.196;2022-12-07T18:51:16;0.20;;;0.20;;
51336;SDS011;37421;51.176;17.196;2022-12-07T18:53:47;0.85;;;0.30;;
51336;SDS011;37421;51.176;17.196;2022-12-07T18:56:23;0.30;;;0.20;;
51336;SDS011;37421;51.176;17.196;2022-12-07T18:58:57;0.82;;;0.20;;
51336;SDS011;37421;51.176;17.196;2022-12-07T19:01:45;0.50;;;0.15;;
51336;SDS011;37421;51.176;17.196;2022-12-07T19:04:25;0.30;;;0.20;;
51336;SDS011;37421;51.176;17.196;2022-12-07T19:07:16;2.35;;;0.40;;
51336;SDS011;37421;51.176;17.196;2022-12-07T19:12:58;0.73;;;0.30;;
51336;SDS011;37421;51.176;17.196;2022-12-07T19:15:51;0.28;;;0.13;;
51336;SDS011;37421;51.176;17.196;2022-12-07T19:18:33;0.60;;;0.20;;
51336;SDS011;37421;51.176;17.196;2022-12-07T19:21:22;0.60;;;0.20;;
51336;SDS011;37421;51.176;17.196;2022-12-07T19:23:51;0.55;;;0.30;;
51336;SDS011;37421;51.176;17.196;2022-12-07T19:26:18;0.63;;;0.20;;
51336;SDS011;37421;51.176;17.196;2022-12-07T19:28:47;0.13;;;0.10;;
51336;SDS011;37421;51.176;17.196;2022-12-07T19:31:14;0.38;;;0.20;;
51336;SDS011;37421;51.176;17.196;2022-12-07T19:33:43;1.60;;;0.20;;
51336;SDS011;37421;51.176;17.196;2022-12-07T19:36:14;0.50;;;0.30;;
51336;SDS011;37421;51.176;17.196;2022-12-07T19:38:54;1.10;;;0.30;;
51336;SDS011;37421;51.176;17.196;2022-12-07T19:41:22;2.28;;;0.30;;
51336;SDS011;37421;51.176;17.196;2022-12-07T19:44:19;0.40;;;0.30;;
51336;SDS011;37421;51.176;17.196;2022-12-07T19:46:47;0.22;;;0.17;;
51336;SDS011;37421;51.176;17.196;2022-12-07T19:49:20;0.40;;;0.28;;
51336;SDS011;37421;51.176;17.196;2022-12-07T19:51:51;0.30;;;0.20;;
51336;SDS011;37421;51.176;17.196;2022-12-07T19:54:20;0.52;;;0.20;;
51336;SDS011;37421;51.176;17.196;2022-12-07T19:56:53;0.52;;;0.20;;
51336;SDS011;37421;51.176;17.196;2022-12-07T19:59:21;1.35;;;0.32;;
51336;SDS011;37421;51.176;17.196;2022-12-07T20:02:23;0.70;;;0.20;;
51336;SDS011;37421;51.176;17.196;2022-12-07T20:04:49;0.30;;;0.20;;
51336;SDS011;37421;51.176;17.196;2022-12-07T20:07:16;1.17;;;0.30;;
51336;SDS011;37421;51.176;17.196;2022-12-07T20:09:42;0.45;;;0.20;;
51336;SDS011;37421;51.176;17.196;2022-12-07T20:12:09;0.22;;;0.20;;
51336;SDS011;37421;51.176;17.196;2022-12-07T20:14:53;0.20;;;0.20;;
51336;SDS011;37421;51.176;17.196;2022-12-07T20:17:23;0.93;;;0.30;;
51336;SDS011;37421;51.176;17.196;2022-12-07T20:19:49;0.50;;;0.22;;
51336;SDS011;37421;51.176;17.196;2022-12-07T20:22:19;0.00;;;0.00;;
51336;SDS011;37421;51.176;17.196;2022-12-07T20:24:51;0.57;;;0.20;;
51336;SDS011;37421;51.176;17.196;2022-12-07T20:27:20;0.30;;;0.15;;
51336;SDS011;37421;51.176;17.196;2022-12-07T20:29:47;0.47;;;0.30;;
51336;SDS011;37421;51.176;17.196;2022-12-07T20:32:14;0.35;;;0.20;;
51336;SDS011;37421;51.176;17.196;2022-12-07T20:34:46;0.25;;;0.20;;
51336;SDS011;37421;51.176;17.196;2022-12-07T20:37:18;0.63;;;0.22;;
51336;SDS011;37421;51.176;17.196;2022-12-07T20:39:44;0.20;;;0.13;;
51336;SDS011;37421;51.176;17.196;2022-12-07T20:42:10;0.82;;;0.22;;
51336;SDS011;37421;51.176;17.196;2022-12-07T20:44:55;0.10;;;0.10;;
51336;SDS011;37421;51.176;17.196;2022-12-07T20:47:24;0.40;;;0.30;;
51336;SDS011;37421;51.176;17.196;2022-12-07T20:49:50;0.63;;;0.20;;
51336;SDS011;37421;51.176;17.196;2022-12-07T20:52:17;0.47;;;0.30;;
51336;SDS011;37421;51.176;17.196;2022-12-07T20:54:44;3.65;;;0.30;;
51336;SDS011;37421;51.176;17.196;2022-12-07T20:57:14;0.80;;;0.30;;
51336;SDS011;37421;51.176;17.196;2022-12-07T20:59:40;0.73;;;0.20;;
51336;SDS011;37421;51.176;17.196;2022-12-07T21:02:12;0.60;;;0.20;;
51336;SDS011;37421;51.176;17.196;2022-12-07T21:04:41;3.08;;;0.40;;
51336;SDS011;37421;51.176;17.196;2022-12-07T21:07:07;0.57;;;0.20;;
51336;SDS011;37421;51.176;17.196;2022-12-07T21:09:33;0.80;;;0.32;;
51336;SDS011;37421;51.176;17.196;2022-12-07T21:12:03;1.42;;;0.32;;
51336;SDS011;37421;51.176;17.196;2022-12-07T21:14:43;0.70;;;0.30;;
51336;SDS011;37421;51.176;17.196;2022-12-07T21:17:10;1.05;;;0.25;;
51336;SDS011;37421;51.176;17.196;2022-12-07T21:19:40;0.50;;;0.30;;
51336;SDS011;37421;51.176;17.196;2022-12-07T21:22:12;0.65;;;0.25;;
51336;SDS011;37421;51.176;17.196;2022-12-07T21:24:41;0.55;;;0.40;;